Hauptseite
METAR-TAF:

METAR-TAF

Flughäfen :

Flughafen Nowokusnezk

Nowokusnezk, Russland

Breite: 53-44N, Länge: 087-11E, Höhe: 308 m

Beobachtung

Neuester Wetterbericht von vor 22 Minuten, um 13:30 UTC
Wind 4 kt aus Nordwest
Temperatur -16°C
Luftfeuchtigkeit 50%
Luftdruck 1031 hPa
Sichtweite 10 km oder mehr
keine Wolken unter 1500 m und keine Kumulonimbus oder Gewitterwolken

METAR: UNWW 241330Z 32002MPS CAVOK M16/M24 Q1031 R01/920247 NOSIG RMK QFE746

Zeit: 20:52 (13:52 UTC)

Prognose

Neuester Wetterbericht von vor 2 Stunden und 52 Minuten, um 11:00 UTC
Gültige Prognose vom 24 um 12 UTC bis 25 um 12 UTC
Wind 6 kt aus Süd/Südwest
Sichtweite: 8000 m
Aufgelockert bewölkt in der Höhe von 4000 ft
Zeitweise
vom 24 um 12 UTC bis 25 um 06 UTC
Sichtweite: 1500 m
Rauch, feuchter Dunst,

TAF: UNWW 241100Z 2412/2512 20003MPS 8000 SCT040 TEMPO 2412/2506 1500 FU BR

Wetterbeobachtungen und Prognosen von mehr als 4000 Flughäfen (METAR und TAF Bericht).

Die verfügbaren Stationen werden durch gelbe und rote Markierungen auf der Karte dargestellt.

Führen Sie die Maus auf sie, um den Namen der Station zu sehen.

Darauf klicken, um die Beobachtung von Wetterbeobachtungen und Prognosen zu sehen.

Um die Karte zu ändern : klicken Sie auf den grünen Tasten mit einem schwarzen Kreuz Zum Vergrößern, auf den grünen Button mit einem Gedankenstrich zu verkleinern, oder auf die grünen Pfeile für benachbarte Karten.


METAR-TAF: